SBOSBO SCL / SCEL
Speedbird OnlineSpeedbird Online SCL / SCEL

Comodoro Arturo Merino Benítez International Airport
17:04 12.1°C

Location Santiago, Chile
Latitude: -33.393001556396484
Longitude: -70.78579711914062
Web Airport Website | Wikipedia
Altitude 474 Meter / 1555 Feet
Distance 11,689 KM / 7,263 Miles
from London.
Time Zone UTC -3 hours (America/Santiago)
Codes IATA: SCL
ICAO: SCEL
Currency £1 equals CLP 1,032.28
Runways
RunwayLength (m)Surface
17L3750Asphalt
17R3750Asphalt
35L3750Asphalt
35R3750Asphalt
Radio
TypeDescriptionFrequency
APPSANTIAGO APP126.3
APPSANTIAGO APP128.1
ATISATIS132.1
CLDCLNC DEL121.7
CNTRSANTIAGO CNTR129.7
GNDGND122.2
RDOSANTIAGO RDO121.5
RDOSANTIAGO RDO664.9
TWRSANTIAGO TWR118.1
Live ATC
METAR SCEL 241900Z 20011KT 9999 BKN015 OVC030 12/08 Q1020 NOSIG
TAF TAF SCEL 241600Z 2418/2518 18010KT 9999 SCT015 BKN030 TX13/2419Z TN08/2510Z BECMG 2500/2502 15005KT SCT020 BKN030 BECMG 2504/2506 VRB02KT BKN015 OVC025 TEMPO 2506/2512 5000 BR BKN009 BECMG 2516/2518 FEW030 SCT180
Weather As Of 24 Sep 2022 17:04
Description Overcast clouds
Wind 19 km/h from South (170°)
Cloud Cover 100%
Precipitation Rain: none, Snow: none
Sunrise 07:29
Sunset 19:40
Lounges Andes International Lounge, International Terminal
LATAM Lounge Santiago , Terminal 2 - International Departures
Rotations During the last 90 days there were
38 flights from LHR
38 flights to LHR


© 2017-2022 Speedbird Online